sensor_id;sensor_type;location;lat;lon;timestamp;temperature;humidity
25248;DHT22;13191;47.472;11.214;2023-02-13T00:01:56;-0.50;99.90
25248;DHT22;13191;47.472;11.214;2023-02-13T00:04:22;-0.50;99.90
25248;DHT22;13191;47.472;11.214;2023-02-13T00:06:47;-0.60;99.90
25248;DHT22;13191;47.472;11.214;2023-02-13T00:09:13;-0.50;99.90
25248;DHT22;13191;47.472;11.214;2023-02-13T00:11:39;-0.50;99.90
25248;DHT22;13191;47.472;11.214;2023-02-13T00:14:04;-0.60;99.90
25248;DHT22;13191;47.472;11.214;2023-02-13T00:16:30;-0.60;99.90
25248;DHT22;13191;47.472;11.214;2023-02-13T00:18:55;-0.60;99.90
25248;DHT22;13191;47.472;11.214;2023-02-13T00:21:21;-0.60;99.90
25248;DHT22;13191;47.472;11.214;2023-02-13T00:23:46;-0.70;99.90
25248;DHT22;13191;47.472;11.214;2023-02-13T00:26:12;-0.70;99.90
25248;DHT22;13191;47.472;11.214;2023-02-13T00:28:39;-0.70;99.90
25248;DHT22;13191;47.472;11.214;2023-02-13T00:31:08;-0.60;99.90
25248;DHT22;13191;47.472;11.214;2023-02-13T00:33:34;-0.70;99.90
25248;DHT22;13191;47.472;11.214;2023-02-13T00:36:04;-0.70;99.90
25248;DHT22;13191;47.472;11.214;2023-02-13T00:38:30;-0.60;99.90
25248;DHT22;13191;47.472;11.214;2023-02-13T00:40:56;-0.60;99.90
25248;DHT22;13191;47.472;11.214;2023-02-13T00:43:21;-0.60;99.90
25248;DHT22;13191;47.472;11.214;2023-02-13T00:45:47;-0.70;99.90
25248;DHT22;13191;47.472;11.214;2023-02-13T00:48:13;-0.70;99.90
25248;DHT22;13191;47.472;11.214;2023-02-13T00:50:38;-0.70;99.90
25248;DHT22;13191;47.472;11.214;2023-02-13T00:53:04;-0.80;99.90
25248;DHT22;13191;47.472;11.214;2023-02-13T00:55:29;-0.80;99.90
25248;DHT22;13191;47.472;11.214;2023-02-13T00:57:55;-0.90;99.90
25248;DHT22;13191;47.472;11.214;2023-02-13T01:00:20;-0.90;99.90
25248;DHT22;13191;47.472;11.214;2023-02-13T01:02:46;-0.90;99.90
25248;DHT22;13191;47.472;11.214;2023-02-13T01:05:12;-0.90;99.90
25248;DHT22;13191;47.472;11.214;2023-02-13T01:07:38;-0.90;99.90
25248;DHT22;13191;47.472;11.214;2023-02-13T01:10:03;-1.00;99.90
25248;DHT22;13191;47.472;11.214;2023-02-13T01:12:29;-1.10;99.90
25248;DHT22;13191;47.472;11.214;2023-02-13T01:14:54;-1.20;99.90
25248;DHT22;13191;47.472;11.214;2023-02-13T01:17:20;-1.20;99.90
25248;DHT22;13191;47.472;11.214;2023-02-13T01:19:46;-1.10;99.90
25248;DHT22;13191;47.472;11.214;2023-02-13T01:22:11;-1.20;99.90
25248;DHT22;13191;47.472;11.214;2023-02-13T01:24:36;-1.20;99.90
25248;DHT22;13191;47.472;11.214;2023-02-13T01:27:02;-1.20;99.90
25248;DHT22;13191;47.472;11.214;2023-02-13T01:29:28;-1.10;99.90
25248;DHT22;13191;47.472;11.214;2023-02-13T01:31:53;-1.10;99.90
25248;DHT22;13191;47.472;11.214;2023-02-13T01:34:19;-1.10;99.90
25248;DHT22;13191;47.472;11.214;2023-02-13T01:36:44;-1.10;99.90
25248;DHT22;13191;47.472;11.214;2023-02-13T01:39:10;-1.10;99.90
25248;DHT22;13191;47.472;11.214;2023-02-13T01:41:35;-1.10;99.90
25248;DHT22;13191;47.472;11.214;2023-02-13T01:44:01;-1.10;99.90
25248;DHT22;13191;47.472;11.214;2023-02-13T01:46:28;-1.20;99.90
25248;DHT22;13191;47.472;11.214;2023-02-13T01:48:57;-1.10;99.90
25248;DHT22;13191;47.472;11.214;2023-02-13T01:51:25;-1.10;99.90
25248;DHT22;13191;47.472;11.214;2023-02-13T01:53:55;-1.20;99.90
25248;DHT22;13191;47.472;11.214;2023-02-13T01:56:24;-1.20;99.90
25248;DHT22;13191;47.472;11.214;2023-02-13T01:58:51;-1.20;99.90
25248;DHT22;13191;47.472;11.214;2023-02-13T02:01:17;-1.20;99.90
25248;DHT22;13191;47.472;11.214;2023-02-13T02:06:13;-1.40;99.90
25248;DHT22;13191;47.472;11.214;2023-02-13T02:08:40;-1.40;99.90
25248;DHT22;13191;47.472;11.214;2023-02-13T02:11:09;-1.50;99.90
25248;DHT22;13191;47.472;11.214;2023-02-13T02:13:36;-1.50;99.90
25248;DHT22;13191;47.472;11.214;2023-02-13T02:16:01;-1.50;99.90
25248;DHT22;13191;47.472;11.214;2023-02-13T02:18:27;-1.50;99.90
25248;DHT22;13191;47.472;11.214;2023-02-13T02:41:14;-1.60;99.90
25248;DHT22;13191;47.472;11.214;2023-02-13T02:46:54;-1.60;99.90
25248;DHT22;13191;47.472;11.214;2023-02-13T02:49:40;-1.70;99.90
25248;DHT22;13191;47.472;11.214;2023-02-13T02:57:44;-1.70;99.90
25248;DHT22;13191;47.472;11.214;2023-02-13T03:00:30;-1.60;99.90
25248;DHT22;13191;47.472;11.214;2023-02-13T03:03:17;-1.60;99.90
25248;DHT22;13191;47.472;11.214;2023-02-13T03:06:02;-1.60;99.90
25248;DHT22;13191;47.472;11.214;2023-02-13T03:08:36;-1.70;99.90
25248;DHT22;13191;47.472;11.214;2023-02-13T03:11:21;-1.80;99.90
25248;DHT22;13191;47.472;11.214;2023-02-13T03:14:05;-1.80;99.90
25248;DHT22;13191;47.472;11.214;2023-02-13T03:16:32;-1.80;99.90
25248;DHT22;13191;47.472;11.214;2023-02-13T03:19:19;-1.80;99.90
25248;DHT22;13191;47.472;11.214;2023-02-13T03:22:08;-1.80;99.90
25248;DHT22;13191;47.472;11.214;2023-02-13T03:27:29;-1.70;99.90
25248;DHT22;13191;47.472;11.214;2023-02-13T03:30:20;-1.60;99.90
25248;DHT22;13191;47.472;11.214;2023-02-13T03:32:59;-1.60;99.90
25248;DHT22;13191;47.472;11.214;2023-02-13T03:35:46;-1.60;99.90
25248;DHT22;13191;47.472;11.214;2023-02-13T03:41:04;-1.80;99.90
25248;DHT22;13191;47.472;11.214;2023-02-13T03:43:54;-1.80;99.90
25248;DHT22;13191;47.472;11.214;2023-02-13T03:46:20;-1.80;99.90
25248;DHT22;13191;47.472;11.214;2023-02-13T03:48:47;-1.80;99.90
25248;DHT22;13191;47.472;11.214;2023-02-13T03:54:01;-1.70;99.90
25248;DHT22;13191;47.472;11.214;2023-02-13T03:56:27;-1.70;99.90
25248;DHT22;13191;47.472;11.214;2023-02-13T03:59:16;-1.70;99.90
25248;DHT22;13191;47.472;11.214;2023-02-13T04:01:45;-1.70;99.90
25248;DHT22;13191;47.472;11.214;2023-02-13T04:04:12;-1.70;99.90
25248;DHT22;13191;47.472;11.214;2023-02-13T04:06:47;-1.60;99.90
25248;DHT22;13191;47.472;11.214;2023-02-13T04:09:14;-1.70;99.90
25248;DHT22;13191;47.472;11.214;2023-02-13T04:11:48;-1.80;99.90
25248;DHT22;13191;47.472;11.214;2023-02-13T04:17:02;-1.80;99.90
25248;DHT22;13191;47.472;11.214;2023-02-13T04:19:29;-1.80;99.90
25248;DHT22;13191;47.472;11.214;2023-02-13T04:21:56;-1.80;99.90
25248;DHT22;13191;47.472;11.214;2023-02-13T04:24:22;-1.80;99.90
25248;DHT22;13191;47.472;11.214;2023-02-13T04:26:48;-1.80;99.90
25248;DHT22;13191;47.472;11.214;2023-02-13T04:29:14;-1.80;99.90
25248;DHT22;13191;47.472;11.214;2023-02-13T04:31:39;-1.90;99.90
25248;DHT22;13191;47.472;11.214;2023-02-13T04:34:04;-1.90;99.90
25248;DHT22;13191;47.472;11.214;2023-02-13T04:36:30;-2.00;99.90
25248;DHT22;13191;47.472;11.214;2023-02-13T04:38:56;-1.90;99.90
25248;DHT22;13191;47.472;11.214;2023-02-13T04:41:21;-1.90;99.90
25248;DHT22;13191;47.472;11.214;2023-02-13T04:43:47;-1.90;99.90
25248;DHT22;13191;47.472;11.214;2023-02-13T04:46:13;-1.90;99.90
25248;DHT22;13191;47.472;11.214;2023-02-13T04:48:38;-1.90;99.90
25248;DHT22;13191;47.472;11.214;2023-02-13T04:51:04;-1.90;99.90
25248;DHT22;13191;47.472;11.214;2023-02-13T04:53:30;-1.80;99.90
25248;DHT22;13191;47.472;11.214;2023-02-13T04:55:55;-1.80;99.90
25248;DHT22;13191;47.472;11.214;2023-02-13T04:58:21;-1.70;99.90
25248;DHT22;13191;47.472;11.214;2023-02-13T05:00:46;-1.70;99.90
25248;DHT22;13191;47.472;11.214;2023-02-13T05:03:12;-1.80;99.90
25248;DHT22;13191;47.472;11.214;2023-02-13T05:05:37;-1.80;99.90
25248;DHT22;13191;47.472;11.214;2023-02-13T05:08:03;-1.80;99.90
25248;DHT22;13191;47.472;11.214;2023-02-13T05:10:29;-1.90;99.90
25248;DHT22;13191;47.472;11.214;2023-02-13T05:12:54;-1.90;99.90
25248;DHT22;13191;47.472;11.214;2023-02-13T05:15:20;-1.90;99.90
25248;DHT22;13191;47.472;11.214;2023-02-13T05:17:47;-2.00;99.90
25248;DHT22;13191;47.472;11.214;2023-02-13T05:20:13;-2.10;99.90
25248;DHT22;13191;47.472;11.214;2023-02-13T05:22:45;-2.10;99.90
25248;DHT22;13191;47.472;11.214;2023-02-13T05:25:29;-2.10;99.90
25248;DHT22;13191;47.472;11.214;2023-02-13T05:27:55;-2.10;99.90
25248;DHT22;13191;47.472;11.214;2023-02-13T05:30:20;-2.00;99.90
25248;DHT22;13191;47.472;11.214;2023-02-13T05:32:46;-2.00;99.90
25248;DHT22;13191;47.472;11.214;2023-02-13T05:35:11;-2.00;99.90
25248;DHT22;13191;47.472;11.214;2023-02-13T05:37:37;-2.10;99.90
25248;DHT22;13191;47.472;11.214;2023-02-13T05:40:02;-2.10;99.90
25248;DHT22;13191;47.472;11.214;2023-02-13T05:42:28;-2.00;99.90
25248;DHT22;13191;47.472;11.214;2023-02-13T05:44:53;-2.00;99.90
25248;DHT22;13191;47.472;11.214;2023-02-13T05:47:19;-2.00;99.90
25248;DHT22;13191;47.472;11.214;2023-02-13T05:49:44;-2.00;99.90
25248;DHT22;13191;47.472;11.214;2023-02-13T05:52:10;-2.00;99.90
25248;DHT22;13191;47.472;11.214;2023-02-13T05:54:35;-2.00;99.90
25248;DHT22;13191;47.472;11.214;2023-02-13T05:57:02;-1.90;99.90
25248;DHT22;13191;47.472;11.214;2023-02-13T05:59:28;-1.90;99.90
25248;DHT22;13191;47.472;11.214;2023-02-13T06:01:53;-2.00;99.90
25248;DHT22;13191;47.472;11.214;2023-02-13T06:04:19;-1.90;99.90
25248;DHT22;13191;47.472;11.214;2023-02-13T06:06:44;-1.90;99.90
25248;DHT22;13191;47.472;11.214;2023-02-13T06:09:10;-1.90;99.90
25248;DHT22;13191;47.472;11.214;2023-02-13T06:11:35;-1.90;99.90
25248;DHT22;13191;47.472;11.214;2023-02-13T06:14:01;-1.90;99.90
25248;DHT22;13191;47.472;11.214;2023-02-13T06:16:26;-1.90;99.90
25248;DHT22;13191;47.472;11.214;2023-02-13T06:18:52;-1.90;99.90
25248;DHT22;13191;47.472;11.214;2023-02-13T06:21:17;-1.90;99.90
25248;DHT22;13191;47.472;11.214;2023-02-13T06:23:43;-1.90;99.90
25248;DHT22;13191;47.472;11.214;2023-02-13T06:26:08;-1.90;99.90
25248;DHT22;13191;47.472;11.214;2023-02-13T06:28:34;-1.90;99.90
25248;DHT22;13191;47.472;11.214;2023-02-13T06:30:59;-1.80;99.90
25248;DHT22;13191;47.472;11.214;2023-02-13T06:33:25;-1.80;99.90
25248;DHT22;13191;47.472;11.214;2023-02-13T06:35:50;-1.90;99.90
25248;DHT22;13191;47.472;11.214;2023-02-13T06:38:16;-2.10;99.90
25248;DHT22;13191;47.472;11.214;2023-02-13T06:40:45;-2.20;99.90
25248;DHT22;13191;47.472;11.214;2023-02-13T06:43:11;-2.20;99.90
25248;DHT22;13191;47.472;11.214;2023-02-13T06:45:37;-2.10;99.90
25248;DHT22;13191;47.472;11.214;2023-02-13T06:48:02;-2.10;99.90
25248;DHT22;13191;47.472;11.214;2023-02-13T06:50:28;-2.10;99.90
25248;DHT22;13191;47.472;11.214;2023-02-13T06:52:53;-2.00;99.90
25248;DHT22;13191;47.472;11.214;2023-02-13T06:55:19;-2.00;99.90
25248;DHT22;13191;47.472;11.214;2023-02-13T06:57:45;-2.00;99.90
25248;DHT22;13191;47.472;11.214;2023-02-13T07:00:11;-2.00;99.90
25248;DHT22;13191;47.472;11.214;2023-02-13T07:02:38;-1.90;99.90
25248;DHT22;13191;47.472;11.214;2023-02-13T07:05:04;-1.90;99.90
25248;DHT22;13191;47.472;11.214;2023-02-13T07:07:31;-1.90;99.90
25248;DHT22;13191;47.472;11.214;2023-02-13T07:09:57;-1.90;99.90
25248;DHT22;13191;47.472;11.214;2023-02-13T07:12:22;-1.80;99.90
25248;DHT22;13191;47.472;11.214;2023-02-13T07:14:48;-1.80;99.90
25248;DHT22;13191;47.472;11.214;2023-02-13T07:17:13;-1.80;99.90
25248;DHT22;13191;47.472;11.214;2023-02-13T07:19:39;-1.80;99.90
25248;DHT22;13191;47.472;11.214;2023-02-13T07:22:04;-1.80;99.90
25248;DHT22;13191;47.472;11.214;2023-02-13T07:24:30;-1.80;99.90
25248;DHT22;13191;47.472;11.214;2023-02-13T07:26:57;-1.80;99.90
25248;DHT22;13191;47.472;11.214;2023-02-13T07:29:23;-1.80;99.90
25248;DHT22;13191;47.472;11.214;2023-02-13T07:31:48;-1.80;99.90
25248;DHT22;13191;47.472;11.214;2023-02-13T07:34:14;-1.80;99.90
25248;DHT22;13191;47.472;11.214;2023-02-13T07:36:39;-1.70;99.90
25248;DHT22;13191;47.472;11.214;2023-02-13T07:39:05;-1.70;99.90
25248;DHT22;13191;47.472;11.214;2023-02-13T07:41:30;-1.60;99.90
25248;DHT22;13191;47.472;11.214;2023-02-13T07:43:56;-1.60;99.90
25248;DHT22;13191;47.472;11.214;2023-02-13T07:46:21;-1.50;99.90
25248;DHT22;13191;47.472;11.214;2023-02-13T07:48:47;-1.50;99.90
25248;DHT22;13191;47.472;11.214;2023-02-13T07:51:12;-1.40;99.90
25248;DHT22;13191;47.472;11.214;2023-02-13T07:53:38;-1.30;99.90
25248;DHT22;13191;47.472;11.214;2023-02-13T07:56:04;-1.30;99.90
25248;DHT22;13191;47.472;11.214;2023-02-13T07:58:30;-1.20;99.90
25248;DHT22;13191;47.472;11.214;2023-02-13T08:00:55;-1.10;99.90
25248;DHT22;13191;47.472;11.214;2023-02-13T08:03:21;-1.00;99.90
25248;DHT22;13191;47.472;11.214;2023-02-13T08:05:46;-1.00;99.90
25248;DHT22;13191;47.472;11.214;2023-02-13T08:08:12;-1.00;99.90
25248;DHT22;13191;47.472;11.214;2023-02-13T08:10:39;-1.00;99.90
25248;DHT22;13191;47.472;11.214;2023-02-13T08:13:23;-1.00;99.90
25248;DHT22;13191;47.472;11.214;2023-02-13T08:15:48;-0.90;99.90
25248;DHT22;13191;47.472;11.214;2023-02-13T08:18:13;-0.80;99.90
25248;DHT22;13191;47.472;11.214;2023-02-13T08:20:39;-0.60;99.90
25248;DHT22;13191;47.472;11.214;2023-02-13T08:23:05;-0.60;99.90
25248;DHT22;13191;47.472;11.214;2023-02-13T08:25:31;-0.50;99.90
25248;DHT22;13191;47.472;11.214;2023-02-13T08:27:57;-0.40;99.90
25248;DHT22;13191;47.472;11.214;2023-02-13T08:30:23;-0.30;99.90
25248;DHT22;13191;47.472;11.214;2023-02-13T08:32:48;-0.20;99.90
25248;DHT22;13191;47.472;11.214;2023-02-13T08:35:14;-0.10;99.90
25248;DHT22;13191;47.472;11.214;2023-02-13T08:37:39;-0.10;99.90
25248;DHT22;13191;47.472;11.214;2023-02-13T08:40:05;0.00;99.90
25248;DHT22;13191;47.472;11.214;2023-02-13T08:42:31;0.10;99.90
25248;DHT22;13191;47.472;11.214;2023-02-13T08:44:56;0.10;99.90
25248;DHT22;13191;47.472;11.214;2023-02-13T08:47:21;0.20;99.90
25248;DHT22;13191;47.472;11.214;2023-02-13T08:49:47;0.30;99.90
25248;DHT22;13191;47.472;11.214;2023-02-13T08:52:12;0.40;99.90
25248;DHT22;13191;47.472;11.214;2023-02-13T08:54:38;0.50;99.90
25248;DHT22;13191;47.472;11.214;2023-02-13T08:57:03;0.60;99.90
25248;DHT22;13191;47.472;11.214;2023-02-13T08:59:29;0.70;99.90
25248;DHT22;13191;47.472;11.214;2023-02-13T09:01:55;0.90;99.90
25248;DHT22;13191;47.472;11.214;2023-02-13T09:04:20;1.00;99.90
25248;DHT22;13191;47.472;11.214;2023-02-13T09:06:46;1.20;99.90
25248;DHT22;13191;47.472;11.214;2023-02-13T09:09:11;1.30;99.90
25248;DHT22;13191;47.472;11.214;2023-02-13T09:11:37;1.40;99.90
25248;DHT22;13191;47.472;11.214;2023-02-13T09:14:02;1.60;99.90
25248;DHT22;13191;47.472;11.214;2023-02-13T09:16:28;1.70;99.90
25248;DHT22;13191;47.472;11.214;2023-02-13T09:18:53;1.80;99.90
25248;DHT22;13191;47.472;11.214;2023-02-13T09:21:19;1.90;99.90
25248;DHT22;13191;47.472;11.214;2023-02-13T09:23:45;2.10;99.90
25248;DHT22;13191;47.472;11.214;2023-02-13T09:26:11;2.30;99.90
25248;DHT22;13191;47.472;11.214;2023-02-13T09:28:37;2.40;99.90
25248;DHT22;13191;47.472;11.214;2023-02-13T09:31:04;2.60;99.90
25248;DHT22;13191;47.472;11.214;2023-02-13T09:33:29;2.80;99.90
25248;DHT22;13191;47.472;11.214;2023-02-13T09:35:55;3.00;99.90
25248;DHT22;13191;47.472;11.214;2023-02-13T09:38:20;3.10;99.90
25248;DHT22;13191;47.472;11.214;2023-02-13T09:40:48;3.30;99.90
25248;DHT22;13191;47.472;11.214;2023-02-13T09:43:34;3.40;99.90
25248;DHT22;13191;47.472;11.214;2023-02-13T09:46:03;3.60;99.90
25248;DHT22;13191;47.472;11.214;2023-02-13T09:48:31;3.70;99.90
25248;DHT22;13191;47.472;11.214;2023-02-13T09:50:58;3.80;99.90
25248;DHT22;13191;47.472;11.214;2023-02-13T09:53:25;4.00;99.90
25248;DHT22;13191;47.472;11.214;2023-02-13T09:58:26;4.40;99.90
25248;DHT22;13191;47.472;11.214;2023-02-13T10:00:55;4.60;99.90
25248;DHT22;13191;47.472;11.214;2023-02-13T10:08:58;5.00;99.90
25248;DHT22;13191;47.472;11.214;2023-02-13T10:21:28;5.90;99.90
25248;DHT22;13191;47.472;11.214;2023-02-13T10:24:03;6.10;99.90
25248;DHT22;13191;47.472;11.214;2023-02-13T10:26:33;6.20;99.90
25248;DHT22;13191;47.472;11.214;2023-02-13T10:31:58;6.50;99.90
25248;DHT22;13191;47.472;11.214;2023-02-13T10:34:26;6.70;99.90
25248;DHT22;13191;47.472;11.214;2023-02-13T10:36:55;6.80;99.90
25248;DHT22;13191;47.472;11.214;2023-02-13T10:49:32;7.50;99.90
25248;DHT22;13191;47.472;11.214;2023-02-13T10:54:34;7.70;99.90
25248;DHT22;13191;47.472;11.214;2023-02-13T10:57:09;7.90;99.90
25248;DHT22;13191;47.472;11.214;2023-02-13T10:59:57;7.90;99.90
25248;DHT22;13191;47.472;11.214;2023-02-13T11:02:27;8.10;99.90
25248;DHT22;13191;47.472;11.214;2023-02-13T11:04:59;8.20;99.90
25248;DHT22;13191;47.472;11.214;2023-02-13T11:07:26;8.30;99.90
25248;DHT22;13191;47.472;11.214;2023-02-13T11:09:57;8.50;99.90
25248;DHT22;13191;47.472;11.214;2023-02-13T11:12:31;8.60;99.90
25248;DHT22;13191;47.472;11.214;2023-02-13T11:14:58;8.80;99.90
25248;DHT22;13191;47.472;11.214;2023-02-13T11:17:24;8.90;99.90
25248;DHT22;13191;47.472;11.214;2023-02-13T11:19:55;9.00;99.90
25248;DHT22;13191;47.472;11.214;2023-02-13T11:25:01;9.20;99.90
25248;DHT22;13191;47.472;11.214;2023-02-13T11:27:34;9.30;99.90
25248;DHT22;13191;47.472;11.214;2023-02-13T11:30:02;9.50;99.90
25248;DHT22;13191;47.472;11.214;2023-02-13T11:32:29;9.60;99.90
25248;DHT22;13191;47.472;11.214;2023-02-13T11:34:55;9.70;99.90
25248;DHT22;13191;47.472;11.214;2023-02-13T11:37:28;9.80;99.90
25248;DHT22;13191;47.472;11.214;2023-02-13T11:39:55;10.00;99.90
25248;DHT22;13191;47.472;11.214;2023-02-13T11:42:25;10.10;99.90
25248;DHT22;13191;47.472;11.214;2023-02-13T11:44:52;10.20;99.90
25248;DHT22;13191;47.472;11.214;2023-02-13T11:47:40;10.40;99.90
25248;DHT22;13191;47.472;11.214;2023-02-13T11:50:05;10.60;99.90
25248;DHT22;13191;47.472;11.214;2023-02-13T11:52:32;10.80;99.90
25248;DHT22;13191;47.472;11.214;2023-02-13T11:55:04;10.90;99.90
25248;DHT22;13191;47.472;11.214;2023-02-13T11:57:34;11.00;99.90
25248;DHT22;13191;47.472;11.214;2023-02-13T12:00:01;11.00;99.90
25248;DHT22;13191;47.472;11.214;2023-02-13T12:02:46;11.20;99.90
25248;DHT22;13191;47.472;11.214;2023-02-13T12:05:19;11.30;99.90
25248;DHT22;13191;47.472;11.214;2023-02-13T12:07:45;11.40;99.90
25248;DHT22;13191;47.472;11.214;2023-02-13T12:12:42;11.60;99.90
25248;DHT22;13191;47.472;11.214;2023-02-13T12:15:13;11.70;99.90
25248;DHT22;13191;47.472;11.214;2023-02-13T12:17:40;11.90;99.90
25248;DHT22;13191;47.472;11.214;2023-02-13T12:20:10;12.00;99.90
25248;DHT22;13191;47.472;11.214;2023-02-13T12:25:13;12.20;99.90
25248;DHT22;13191;47.472;11.214;2023-02-13T12:28:06;12.30;99.90
25248;DHT22;13191;47.472;11.214;2023-02-13T12:30:42;12.40;99.90
25248;DHT22;13191;47.472;11.214;2023-02-13T12:41:08;13.00;99.90
25248;DHT22;13191;47.472;11.214;2023-02-13T12:43:57;13.20;99.90
25248;DHT22;13191;47.472;11.214;2023-02-13T12:46:49;13.30;99.90
25248;DHT22;13191;47.472;11.214;2023-02-13T12:54:35;13.70;99.90
25248;DHT22;13191;47.472;11.214;2023-02-13T12:59:45;13.90;99.90
25248;DHT22;13191;47.472;11.214;2023-02-13T13:05:02;14.20;99.90
25248;DHT22;13191;47.472;11.214;2023-02-13T13:07:43;14.30;99.90
25248;DHT22;13191;47.472;11.214;2023-02-13T13:17:38;14.80;99.90
25248;DHT22;13191;47.472;11.214;2023-02-13T13:20:28;14.90;99.90
25248;DHT22;13191;47.472;11.214;2023-02-13T13:27:48;15.50;99.90
25248;DHT22;13191;47.472;11.214;2023-02-13T13:30:17;15.60;99.90
25248;DHT22;13191;47.472;11.214;2023-02-13T13:32:43;15.80;99.90
25248;DHT22;13191;47.472;11.214;2023-02-13T13:35:13;15.80;99.90
25248;DHT22;13191;47.472;11.214;2023-02-13T13:37:41;15.90;99.90
25248;DHT22;13191;47.472;11.214;2023-02-13T13:45:41;16.30;99.90
25248;DHT22;13191;47.472;11.214;2023-02-13T13:50:43;16.50;99.90
25248;DHT22;13191;47.472;11.214;2023-02-13T13:53:11;16.60;99.90
25248;DHT22;13191;47.472;11.214;2023-02-13T13:58:30;16.60;99.90
25248;DHT22;13191;47.472;11.214;2023-02-13T14:03:44;16.90;99.90
25248;DHT22;13191;47.472;11.214;2023-02-13T14:06:11;16.80;99.90
25248;DHT22;13191;47.472;11.214;2023-02-13T14:11:02;16.20;99.90
25248;DHT22;13191;47.472;11.214;2023-02-13T14:13:29;16.00;99.90
25248;DHT22;13191;47.472;11.214;2023-02-13T14:15:55;15.80;99.90
25248;DHT22;13191;47.472;11.214;2023-02-13T14:18:21;15.40;99.90
25248;DHT22;13191;47.472;11.214;2023-02-13T14:28:41;14.90;99.90
25248;DHT22;13191;47.472;11.214;2023-02-13T14:31:40;15.00;99.90
25248;DHT22;13191;47.472;11.214;2023-02-13T14:36:40;15.20;99.90
25248;DHT22;13191;47.472;11.214;2023-02-13T14:41:41;15.40;99.90
25248;DHT22;13191;47.472;11.214;2023-02-13T14:44:13;15.20;99.90
25248;DHT22;13191;47.472;11.214;2023-02-13T14:46:41;15.20;99.90
25248;DHT22;13191;47.472;11.214;2023-02-13T14:49:18;15.20;99.90
25248;DHT22;13191;47.472;11.214;2023-02-13T14:51:45;15.40;99.90
25248;DHT22;13191;47.472;11.214;2023-02-13T14:54:19;15.10;99.90
25248;DHT22;13191;47.472;11.214;2023-02-13T14:56:48;15.00;99.90
25248;DHT22;13191;47.472;11.214;2023-02-13T14:59:17;15.10;99.90
25248;DHT22;13191;47.472;11.214;2023-02-13T15:04:16;15.50;99.90
25248;DHT22;13191;47.472;11.214;2023-02-13T15:06:43;15.50;99.90
25248;DHT22;13191;47.472;11.214;2023-02-13T15:11:50;15.20;99.90
25248;DHT22;13191;47.472;11.214;2023-02-13T15:14:16;15.40;99.90
25248;DHT22;13191;47.472;11.214;2023-02-13T15:16:42;15.50;99.90
25248;DHT22;13191;47.472;11.214;2023-02-13T15:19:13;15.80;99.90
25248;DHT22;13191;47.472;11.214;2023-02-13T15:21:44;15.90;99.90
25248;DHT22;13191;47.472;11.214;2023-02-13T15:24:12;16.00;99.90
25248;DHT22;13191;47.472;11.214;2023-02-13T15:26:38;16.30;99.90
25248;DHT22;13191;47.472;11.214;2023-02-13T15:29:12;16.30;99.90
25248;DHT22;13191;47.472;11.214;2023-02-13T15:31:37;16.40;99.90
25248;DHT22;13191;47.472;11.214;2023-02-13T15:34:03;16.40;99.90
25248;DHT22;13191;47.472;11.214;2023-02-13T15:36:43;16.40;99.90
25248;DHT22;13191;47.472;11.214;2023-02-13T15:39:15;16.00;99.00
25248;DHT22;13191;47.472;11.214;2023-02-13T15:41:50;15.90;99.60
25248;DHT22;13191;47.472;11.214;2023-02-13T15:44:18;15.80;99.10
25248;DHT22;13191;47.472;11.214;2023-02-13T15:46:47;15.50;99.10
25248;DHT22;13191;47.472;11.214;2023-02-13T15:49:14;15.00;99.20
25248;DHT22;13191;47.472;11.214;2023-02-13T15:51:40;14.60;99.40
25248;DHT22;13191;47.472;11.214;2023-02-13T15:54:20;14.60;99.90
25248;DHT22;13191;47.472;11.214;2023-02-13T15:56:46;14.70;99.90
25248;DHT22;13191;47.472;11.214;2023-02-13T15:59:12;14.60;99.90
25248;DHT22;13191;47.472;11.214;2023-02-13T16:01:38;13.80;99.90
25248;DHT22;13191;47.472;11.214;2023-02-13T16:04:07;13.30;99.90
25248;DHT22;13191;47.472;11.214;2023-02-13T16:06:34;12.50;99.90
25248;DHT22;13191;47.472;11.214;2023-02-13T16:09:00;12.00;99.90
25248;DHT22;13191;47.472;11.214;2023-02-13T16:14:08;11.50;99.90
25248;DHT22;13191;47.472;11.214;2023-02-13T16:21:49;10.60;99.90
25248;DHT22;13191;47.472;11.214;2023-02-13T16:24:14;10.60;99.90
25248;DHT22;13191;47.472;11.214;2023-02-13T16:26:41;10.20;99.90
25248;DHT22;13191;47.472;11.214;2023-02-13T16:29:10;10.00;99.90
25248;DHT22;13191;47.472;11.214;2023-02-13T16:31:40;9.70;99.90
25248;DHT22;13191;47.472;11.214;2023-02-13T16:34:21;9.40;99.90
25248;DHT22;13191;47.472;11.214;2023-02-13T16:36:48;9.00;99.90
25248;DHT22;13191;47.472;11.214;2023-02-13T16:39:17;8.40;99.90
25248;DHT22;13191;47.472;11.214;2023-02-13T16:41:43;8.20;99.90
25248;DHT22;13191;47.472;11.214;2023-02-13T16:44:28;8.10;99.90
25248;DHT22;13191;47.472;11.214;2023-02-13T16:46:57;8.10;99.90
25248;DHT22;13191;47.472;11.214;2023-02-13T16:49:24;7.70;99.90
25248;DHT22;13191;47.472;11.214;2023-02-13T16:51:54;7.50;99.90
25248;DHT22;13191;47.472;11.214;2023-02-13T16:59:22;7.20;99.90
25248;DHT22;13191;47.472;11.214;2023-02-13T17:02:00;6.90;99.90
25248;DHT22;13191;47.472;11.214;2023-02-13T17:04:26;6.70;99.90
25248;DHT22;13191;47.472;11.214;2023-02-13T17:06:55;6.60;99.90
25248;DHT22;13191;47.472;11.214;2023-02-13T17:09:20;6.50;99.90
25248;DHT22;13191;47.472;11.214;2023-02-13T17:11:48;6.10;99.90
25248;DHT22;13191;47.472;11.214;2023-02-13T17:14:14;6.00;99.90
25248;DHT22;13191;47.472;11.214;2023-02-13T17:16:40;6.00;99.90
25248;DHT22;13191;47.472;11.214;2023-02-13T17:19:06;5.80;99.90
25248;DHT22;13191;47.472;11.214;2023-02-13T17:21:31;5.70;99.90
25248;DHT22;13191;47.472;11.214;2023-02-13T17:23:57;5.70;99.90
25248;DHT22;13191;47.472;11.214;2023-02-13T17:26:22;5.70;99.90
25248;DHT22;13191;47.472;11.214;2023-02-13T17:28:48;5.60;99.90
25248;DHT22;13191;47.472;11.214;2023-02-13T17:31:13;5.50;99.90
25248;DHT22;13191;47.472;11.214;2023-02-13T17:33:39;5.50;99.90
25248;DHT22;13191;47.472;11.214;2023-02-13T17:36:05;5.40;99.90
25248;DHT22;13191;47.472;11.214;2023-02-13T17:38:31;5.40;99.90
25248;DHT22;13191;47.472;11.214;2023-02-13T17:40:56;5.40;99.90
25248;DHT22;13191;47.472;11.214;2023-02-13T17:43:22;5.20;99.90
25248;DHT22;13191;47.472;11.214;2023-02-13T17:45:49;5.00;99.90
25248;DHT22;13191;47.472;11.214;2023-02-13T17:48:15;4.70;99.90
25248;DHT22;13191;47.472;11.214;2023-02-13T17:50:41;4.60;99.90
25248;DHT22;13191;47.472;11.214;2023-02-13T17:53:07;4.60;99.90
25248;DHT22;13191;47.472;11.214;2023-02-13T17:55:35;4.60;99.90
25248;DHT22;13191;47.472;11.214;2023-02-13T17:58:01;4.50;99.90
25248;DHT22;13191;47.472;11.214;2023-02-13T18:00:28;4.60;99.90
25248;DHT22;13191;47.472;11.214;2023-02-13T18:02:54;4.50;99.90
25248;DHT22;13191;47.472;11.214;2023-02-13T18:05:20;4.50;99.90
25248;DHT22;13191;47.472;11.214;2023-02-13T18:07:46;4.50;99.90
25248;DHT22;13191;47.472;11.214;2023-02-13T18:10:22;4.40;99.90